Terminal Aerodrome Forecast
Issued by NWS

Home | Current Version | Previous Version | Text Only | Print | Product List | Glossary On
Versions: 1 2 3 4 5 6 7 8 9 10 11 12 13 14 15 16 17 18 19
000
FTUS44 KLZK 181720
TAFLIT
TAF
KLIT 181720Z 1818/1918 23005KT P6SM SCT035 BKN250
     FM190000 VRB03KT P6SM BKN250
     FM191400 27005KT P6SM VCSH SCT035 BKN250=

USA.gov is the U.S. government's official web portal to all federal, state and local government web resources and services.